Terminal Aerodrome Forecast
Issued by NWS

Home | Current Version | Previous Version | Text Only | Print | Product List | Glossary On
Versions: 1 2 3 4 5 6 7 8 9 10 11 12 13 14 15 16 17 18 19 20 21 22 23 24 25 26 27 28 29 30 31 32 33
000
FTUS43 KDVN 181130
TAFCID
TAF
KCID 181130Z 1812/1912 11008KT P6SM SCT100 BKN250
     FM182200 14007KT P6SM VCSH BKN060
     FM190200 08006KT P6SM SCT080 BKN150
     FM190900 14005KT 3SM BR BKN200=

USA.gov is the U.S. government's official web portal to all federal, state and local government web resources and services.